createdAt,value
2022-10-09T00:01:29.610Z,91.90
2022-10-09T00:03:59.300Z,91.60
2022-10-09T00:06:29.643Z,91.30
2022-10-09T00:08:58.604Z,91.00
2022-10-09T00:11:29.743Z,90.80
2022-10-09T00:13:58.336Z,90.60
2022-10-09T00:16:27.331Z,90.50
2022-10-09T00:18:56.057Z,90.50
2022-10-09T00:21:26.532Z,90.50
2022-10-09T00:23:56.583Z,90.60
2022-10-09T00:26:26.093Z,90.50
2022-10-09T00:28:56.212Z,90.50
2022-10-09T00:31:25.347Z,90.60
2022-10-09T00:33:53.650Z,91.20
2022-10-09T00:36:23.885Z,91.10
2022-10-09T00:38:52.355Z,91.50
2022-10-09T00:41:24.136Z,91.80
2022-10-09T00:43:56.295Z,92.10
2022-10-09T00:46:34.794Z,92.50
2022-10-09T00:49:15.562Z,92.80
2022-10-09T00:51:47.124Z,92.90
2022-10-09T00:54:18.246Z,93.20
2022-10-09T00:56:46.635Z,93.40
2022-10-09T00:59:17.808Z,93.90
2022-10-09T01:01:46.553Z,93.90
2022-10-09T01:04:15.383Z,94.20
2022-10-09T01:06:57.594Z,94.60
2022-10-09T01:09:39.519Z,95.00
2022-10-09T01:12:13.050Z,95.50
2022-10-09T01:14:47.672Z,95.80
2022-10-09T01:17:22.404Z,96.10
2022-10-09T01:20:04.055Z,96.40
2022-10-09T01:22:46.374Z,96.60
2022-10-09T01:25:22.104Z,96.90
2022-10-09T01:27:51.879Z,96.70
2022-10-09T01:30:20.464Z,96.70
2022-10-09T01:32:52.081Z,96.70
2022-10-09T01:35:22.795Z,96.80
2022-10-09T01:37:53.374Z,96.80
2022-10-09T01:40:24.128Z,96.70
2022-10-09T01:42:54.544Z,96.70
2022-10-09T01:45:23.068Z,96.80
2022-10-09T01:47:52.285Z,96.80
2022-10-09T01:50:27.766Z,96.90
2022-10-09T01:53:01.781Z,97.00
2022-10-09T01:55:40.163Z,97.10
2022-10-09T01:58:14.084Z,97.10
2022-10-09T02:00:46.412Z,97.00
2022-10-09T02:03:17.644Z,97.00
2022-10-09T02:05:48.209Z,97.20
2022-10-09T02:08:20.191Z,97.40
2022-10-09T02:10:52.209Z,97.70
2022-10-09T02:13:22.818Z,97.80
2022-10-09T02:15:54.641Z,97.90
2022-10-09T02:18:30.960Z,98.00
2022-10-09T02:21:06.595Z,98.20
2022-10-09T02:23:36.126Z,98.20
2022-10-09T02:26:04.515Z,98.30
2022-10-09T02:28:34.378Z,98.40
2022-10-09T02:31:08.186Z,98.50
2022-10-09T02:33:36.596Z,98.60
2022-10-09T02:36:05.287Z,98.60
2022-10-09T02:38:33.564Z,98.60
2022-10-09T02:41:02.599Z,98.70
2022-10-09T02:43:30.913Z,98.80
2022-10-09T02:46:00.500Z,98.90
2022-10-09T02:48:28.861Z,98.90
2022-10-09T02:50:57.106Z,98.90
2022-10-09T02:53:25.424Z,99.10
2022-10-09T02:55:53.744Z,99.20
2022-10-09T02:58:22.057Z,99.30
2022-10-09T03:00:50.534Z,99.40
2022-10-09T03:03:21.261Z,99.60
2022-10-09T03:05:49.601Z,99.70
2022-10-09T03:08:17.864Z,99.90
2022-10-09T03:10:46.206Z,99.90
2022-10-09T03:13:14.508Z,99.90
2022-10-09T03:15:42.962Z,99.90
2022-10-09T03:18:11.581Z,99.90
2022-10-09T03:20:41.513Z,99.90
2022-10-09T03:23:09.793Z,99.90
2022-10-09T03:25:38.058Z,99.90
2022-10-09T03:28:06.453Z,99.90
2022-10-09T03:30:34.782Z,99.90
2022-10-09T03:33:03.262Z,99.90
2022-10-09T03:35:31.525Z,99.90
2022-10-09T03:38:02.473Z,99.90
2022-10-09T03:40:30.766Z,99.90
2022-10-09T03:42:59.112Z,99.90
2022-10-09T03:45:27.396Z,99.90
2022-10-09T03:47:55.670Z,99.90
2022-10-09T03:50:24.039Z,99.90
2022-10-09T03:52:52.381Z,99.90
2022-10-09T03:55:21.980Z,99.90
2022-10-09T03:57:50.306Z,99.90
2022-10-09T04:00:18.804Z,99.90
2022-10-09T04:02:47.666Z,99.90
2022-10-09T04:05:16.365Z,99.90
2022-10-09T04:07:44.724Z,99.90
2022-10-09T04:10:13.070Z,99.90
2022-10-09T04:12:43.024Z,99.90
2022-10-09T04:15:12.014Z,99.90
2022-10-09T04:17:40.486Z,99.90
2022-10-09T04:20:09.587Z,99.90
2022-10-09T04:22:37.953Z,99.90
2022-10-09T04:25:06.732Z,99.90
2022-10-09T04:27:35.044Z,99.90
2022-10-09T04:30:05.168Z,99.90
2022-10-09T04:32:33.482Z,99.90
2022-10-09T04:35:01.706Z,99.90
2022-10-09T04:37:30.144Z,99.90
2022-10-09T04:39:58.403Z,99.90
2022-10-09T04:42:26.721Z,99.90
2022-10-09T04:44:55.062Z,99.90
2022-10-09T04:47:24.747Z,99.90
2022-10-09T04:49:53.016Z,99.90
2022-10-09T04:52:21.543Z,99.90
2022-10-09T04:54:49.792Z,99.90
2022-10-09T04:57:18.087Z,99.90
2022-10-09T04:59:46.526Z,99.90
2022-10-09T05:02:14.851Z,99.90
2022-10-09T05:04:45.197Z,99.90
2022-10-09T05:07:13.483Z,99.90
2022-10-09T05:09:41.722Z,99.90
2022-10-09T05:12:10.214Z,99.90
2022-10-09T05:14:38.504Z,99.90
2022-10-09T05:17:15.105Z,99.90
2022-10-09T05:19:45.014Z,99.90
2022-10-09T05:22:13.315Z,99.90
2022-10-09T05:24:41.681Z,99.90
2022-10-09T05:27:09.935Z,99.90
2022-10-09T05:29:38.226Z,99.90
2022-10-09T05:32:06.565Z,99.90
2022-10-09T05:34:35.093Z,99.90
2022-10-09T05:37:04.732Z,99.90
2022-10-09T05:39:35.965Z,99.90
2022-10-09T05:42:04.367Z,99.90
2022-10-09T05:44:32.694Z,99.90
2022-10-09T05:47:01.090Z,99.90
2022-10-09T05:49:29.388Z,99.90
2022-10-09T05:51:57.730Z,99.90
2022-10-09T05:54:27.428Z,99.90
2022-10-09T05:56:55.693Z,99.90
2022-10-09T05:59:24.017Z,98.60
2022-10-09T06:01:53.619Z,96.50
2022-10-09T06:04:23.715Z,93.60
2022-10-09T06:06:52.703Z,91.00
2022-10-09T06:09:23.506Z,86.80
2022-10-09T06:11:54.217Z,83.30
2022-10-09T06:14:24.456Z,79.00
2022-10-09T06:16:53.118Z,76.30
2022-10-09T06:19:23.156Z,72.60
2022-10-09T06:21:52.002Z,68.70
2022-10-09T06:24:27.364Z,66.20
2022-10-09T06:26:58.536Z,64.40
2022-10-09T06:29:27.363Z,62.10
2022-10-09T06:31:55.610Z,60.60
2022-10-09T06:34:24.233Z,59.40
2022-10-09T06:36:52.558Z,58.30
2022-10-09T06:39:21.021Z,57.20
2022-10-09T06:41:49.548Z,56.40
2022-10-09T06:44:32.258Z,55.60
2022-10-09T06:47:00.692Z,54.40
2022-10-09T06:49:29.098Z,53.00
2022-10-09T06:51:57.406Z,51.90
2022-10-09T06:54:25.714Z,50.90
2022-10-09T06:56:55.780Z,50.00
2022-10-09T06:59:24.091Z,49.20
2022-10-09T07:01:53.892Z,48.80
2022-10-09T07:04:22.296Z,48.00
2022-10-09T07:06:50.665Z,47.30
2022-10-09T07:09:18.986Z,46.20
2022-10-09T07:11:49.699Z,45.30
2022-10-09T07:14:18.543Z,44.40
2022-10-09T07:16:48.679Z,43.80
2022-10-09T07:19:19.915Z,43.10
2022-10-09T07:21:50.942Z,42.30
2022-10-09T07:24:20.801Z,41.40
2022-10-09T07:26:49.931Z,40.90
2022-10-09T07:29:19.992Z,40.10
2022-10-09T07:31:49.859Z,39.80
2022-10-09T07:34:19.580Z,39.50
2022-10-09T07:36:47.877Z,39.30
2022-10-09T07:39:19.068Z,39.00
2022-10-09T07:41:47.812Z,38.20
2022-10-09T07:44:16.268Z,37.60
2022-10-09T07:46:44.558Z,36.60
2022-10-09T07:49:12.953Z,35.70
2022-10-09T07:51:42.646Z,34.90
2022-10-09T07:54:10.965Z,34.60
2022-10-09T07:56:39.542Z,34.10
2022-10-09T07:59:09.329Z,33.00
2022-10-09T08:01:37.802Z,32.70
2022-10-09T08:04:06.942Z,32.70
2022-10-09T08:06:35.774Z,32.40
2022-10-09T08:09:06.831Z,32.20
2022-10-09T08:11:36.145Z,31.90
2022-10-09T08:14:04.479Z,31.90
2022-10-09T08:16:33.435Z,31.80
2022-10-09T08:19:02.456Z,31.10
2022-10-09T08:21:32.951Z,30.70
2022-10-09T08:24:01.708Z,30.10
2022-10-09T08:26:32.327Z,29.70
2022-10-09T08:29:02.244Z,29.70
2022-10-09T08:31:32.162Z,29.80
2022-10-09T08:34:02.178Z,29.70
2022-10-09T08:36:30.892Z,29.70
2022-10-09T08:38:59.623Z,29.80
2022-10-09T08:41:44.330Z,29.90
2022-10-09T08:44:17.745Z,30.00
2022-10-09T08:46:56.852Z,29.80
2022-10-09T08:49:32.406Z,29.50
2022-10-09T08:52:06.443Z,29.30
2022-10-09T08:54:37.265Z,29.20
2022-10-09T08:57:13.548Z,29.00
2022-10-09T08:59:41.977Z,28.60
2022-10-09T09:02:36.801Z,28.50
2022-10-09T09:05:16.123Z,28.80
2022-10-09T09:07:50.375Z,28.70
2022-10-09T09:10:30.035Z,28.50
2022-10-09T09:13:13.827Z,28.50
2022-10-09T09:15:49.886Z,28.30
2022-10-09T09:18:30.997Z,28.30
2022-10-09T09:21:07.474Z,27.90
2022-10-09T09:23:41.894Z,27.80
2022-10-09T09:26:15.268Z,27.70
2022-10-09T09:28:45.804Z,27.80
2022-10-09T09:31:20.131Z,27.90
2022-10-09T09:33:57.453Z,27.90
2022-10-09T09:36:29.436Z,28.00
2022-10-09T09:41:47.038Z,27.70
2022-10-09T09:44:18.669Z,27.60
2022-10-09T09:46:49.011Z,27.50
2022-10-09T09:49:19.647Z,27.30
2022-10-09T09:51:49.767Z,27.00
2022-10-09T09:54:20.113Z,26.80
2022-10-09T09:59:41.304Z,27.10
2022-10-09T10:02:15.482Z,27.00
2022-10-09T10:04:52.566Z,26.90
2022-10-09T10:07:31.878Z,26.60
2022-10-09T10:10:09.077Z,26.20
2022-10-09T10:12:42.093Z,26.10
2022-10-09T10:15:21.467Z,26.10
2022-10-09T10:17:55.576Z,26.00
2022-10-09T10:20:24.098Z,26.10
2022-10-09T10:22:54.042Z,26.20
2022-10-09T10:25:25.737Z,26.10
2022-10-09T10:27:59.492Z,26.20
2022-10-09T10:30:29.693Z,26.30
2022-10-09T10:33:03.612Z,26.20
2022-10-09T10:35:36.426Z,26.20
2022-10-09T10:38:08.548Z,26.00
2022-10-09T10:40:39.305Z,25.70
2022-10-09T10:43:28.275Z,25.40
2022-10-09T10:46:05.107Z,25.30
2022-10-09T10:48:40.050Z,25.40
2022-10-09T10:51:19.970Z,25.50
2022-10-09T10:54:01.575Z,25.60
2022-10-09T10:56:33.702Z,25.50
2022-10-09T10:59:14.695Z,25.40
2022-10-09T11:01:53.123Z,25.10
2022-10-09T11:04:42.278Z,24.80
2022-10-09T11:07:21.760Z,24.90
2022-10-09T11:10:01.088Z,25.20
2022-10-09T11:12:48.136Z,25.20
2022-10-09T11:15:25.026Z,25.00
2022-10-09T11:18:05.195Z,24.90
2022-10-09T11:20:55.403Z,24.90
2022-10-09T11:23:30.512Z,24.50
2022-10-09T11:26:04.514Z,24.80
2022-10-09T11:28:38.828Z,24.80
2022-10-09T11:31:14.756Z,24.80
2022-10-09T11:33:48.148Z,24.90
2022-10-09T11:36:20.873Z,25.10
2022-10-09T11:38:53.863Z,24.80
2022-10-09T11:41:22.618Z,24.60
2022-10-09T11:44:05.485Z,24.70
2022-10-09T11:46:47.645Z,24.80
2022-10-09T11:49:24.256Z,24.80
2022-10-09T11:52:01.062Z,24.80
2022-10-09T11:54:30.232Z,24.90
2022-10-09T11:57:00.788Z,24.90
2022-10-09T11:59:31.384Z,25.20
2022-10-09T12:02:01.672Z,25.40
2022-10-09T12:07:32.005Z,25.50
2022-10-09T12:10:04.483Z,25.50
2022-10-09T12:12:33.559Z,25.10
2022-10-09T12:15:13.690Z,25.10
2022-10-09T12:17:49.926Z,24.90
2022-10-09T12:20:23.105Z,24.90
2022-10-09T12:23:21.649Z,24.70
2022-10-09T12:25:47.032Z,24.70
2022-10-09T12:28:22.902Z,24.80
2022-10-09T12:30:52.937Z,24.70
2022-10-09T12:33:26.906Z,24.60
2022-10-09T12:36:07.274Z,24.60
2022-10-09T12:38:35.625Z,24.30
2022-10-09T12:41:06.946Z,24.40
2022-10-09T12:43:36.459Z,24.10
2022-10-09T12:46:05.084Z,24.20
2022-10-09T12:48:39.509Z,24.00
2022-10-09T12:51:17.834Z,23.70
2022-10-09T12:53:50.253Z,23.50
2022-10-09T12:56:23.831Z,23.50
2022-10-09T12:58:53.544Z,22.90
2022-10-09T13:01:22.515Z,22.70
2022-10-09T13:03:57.096Z,22.50
2022-10-09T13:06:29.446Z,22.60
2022-10-09T13:08:59.714Z,22.70
2022-10-09T13:11:33.798Z,22.70
2022-10-09T13:14:02.716Z,22.50
2022-10-09T13:16:43.669Z,22.30
2022-10-09T13:19:24.934Z,22.20
2022-10-09T13:22:21.406Z,22.00
2022-10-09T13:24:53.267Z,22.00
2022-10-09T13:27:23.847Z,22.60
2022-10-09T13:29:52.422Z,22.60
2022-10-09T13:32:22.826Z,22.50
2022-10-09T13:34:51.256Z,22.60
2022-10-09T13:37:23.508Z,22.40
2022-10-09T13:39:55.528Z,22.40
2022-10-09T13:42:26.963Z,22.70
2022-10-09T13:44:55.256Z,22.60
2022-10-09T13:47:24.826Z,22.30
2022-10-09T13:49:53.486Z,22.40
2022-10-09T13:52:23.113Z,22.10
2022-10-09T13:54:51.423Z,22.30
2022-10-09T13:57:19.757Z,22.30
2022-10-09T13:59:48.056Z,22.10
2022-10-09T14:02:16.579Z,22.00
2022-10-09T14:04:44.916Z,22.10
2022-10-09T14:07:13.251Z,22.10
2022-10-09T14:09:42.936Z,21.90
2022-10-09T14:12:11.554Z,21.70
2022-10-09T14:14:39.826Z,21.90
2022-10-09T14:17:08.195Z,21.80
2022-10-09T14:19:36.543Z,21.50
2022-10-09T14:22:04.865Z,21.50
2022-10-09T14:24:33.212Z,21.30
2022-10-09T14:27:02.893Z,21.40
2022-10-09T14:29:31.212Z,21.40
2022-10-09T14:31:59.614Z,21.40
2022-10-09T14:34:27.936Z,21.60
2022-10-09T14:36:56.553Z,21.80
2022-10-09T14:39:24.898Z,22.00
2022-10-09T14:41:53.234Z,22.20
2022-10-09T14:44:22.914Z,22.50
2022-10-09T14:46:51.202Z,22.90
2022-10-09T14:49:19.708Z,23.40
2022-10-09T14:51:48.375Z,23.70
2022-10-09T14:54:16.815Z,24.00
2022-10-09T14:56:45.205Z,24.40
2022-10-09T14:59:13.636Z,24.80
2022-10-09T15:01:43.214Z,25.10
2022-10-09T15:04:11.646Z,25.50
2022-10-09T15:06:40.597Z,25.80
2022-10-09T15:09:08.902Z,26.30
2022-10-09T15:11:38.163Z,26.70
2022-10-09T15:14:06.994Z,27.10
2022-10-09T15:16:35.728Z,27.50
2022-10-09T15:19:06.340Z,27.80
2022-10-09T15:21:36.624Z,28.20
2022-10-09T15:24:06.505Z,28.50
2022-10-09T15:26:36.862Z,28.80
2022-10-09T15:29:06.874Z,29.10
2022-10-09T15:31:39.110Z,29.30
2022-10-09T15:34:09.767Z,29.60
2022-10-09T15:36:40.557Z,30.00
2022-10-09T15:39:09.204Z,30.30
2022-10-09T15:41:39.552Z,30.60
2022-10-09T15:44:13.833Z,31.00
2022-10-09T15:46:42.134Z,31.30
2022-10-09T15:49:11.798Z,31.60
2022-10-09T15:51:40.136Z,32.00
2022-10-09T15:54:08.569Z,32.20
2022-10-09T15:56:39.837Z,32.50
2022-10-09T15:59:08.935Z,32.90
2022-10-09T16:01:37.474Z,33.30
2022-10-09T16:04:05.993Z,33.50
2022-10-09T16:06:36.128Z,33.70
2022-10-09T16:09:05.178Z,34.00
2022-10-09T16:11:34.670Z,34.30
2022-10-09T16:14:04.409Z,34.70
2022-10-09T16:16:32.769Z,35.00
2022-10-09T16:19:03.416Z,35.30
2022-10-09T16:21:32.384Z,35.60
2022-10-09T16:24:02.074Z,35.80
2022-10-09T16:26:31.026Z,36.00
2022-10-09T16:29:01.138Z,36.20
2022-10-09T16:31:31.456Z,36.50
2022-10-09T16:34:00.321Z,36.80
2022-10-09T16:36:28.931Z,36.90
2022-10-09T16:38:59.085Z,37.10
2022-10-09T16:41:28.746Z,37.40
2022-10-09T16:44:00.298Z,37.70
2022-10-09T16:46:32.246Z,37.90
2022-10-09T16:49:01.936Z,38.00
2022-10-09T16:51:32.582Z,38.30
2022-10-09T16:54:03.075Z,38.50
2022-10-09T16:56:34.996Z,38.80
2022-10-09T16:59:05.542Z,38.80
2022-10-09T17:01:36.048Z,38.90
2022-10-09T17:04:04.842Z,39.30
2022-10-09T17:06:33.493Z,39.30
2022-10-09T17:09:01.795Z,39.30
2022-10-09T17:11:32.780Z,39.60
2022-10-09T17:14:01.083Z,39.70
2022-10-09T17:16:31.794Z,39.90
2022-10-09T17:19:00.683Z,40.10
2022-10-09T17:21:33.024Z,40.20
2022-10-09T17:24:04.944Z,40.30
2022-10-09T17:26:35.298Z,40.50
2022-10-09T17:29:04.730Z,40.60
2022-10-09T17:31:33.353Z,41.40
2022-10-09T17:34:04.038Z,40.90
2022-10-09T17:36:34.145Z,40.90
2022-10-09T17:39:02.761Z,41.00
2022-10-09T17:41:31.086Z,41.10
2022-10-09T17:44:00.967Z,41.20
2022-10-09T17:46:30.476Z,41.20
2022-10-09T17:48:59.754Z,41.40
2022-10-09T17:51:29.498Z,41.80
2022-10-09T17:54:01.067Z,41.80
2022-10-09T17:56:30.194Z,41.90
2022-10-09T17:59:01.985Z,42.00
2022-10-09T18:01:30.795Z,42.00
2022-10-09T18:03:59.536Z,42.30
2022-10-09T18:06:28.635Z,42.40
2022-10-09T18:08:58.040Z,42.50
2022-10-09T18:11:27.478Z,42.60
2022-10-09T18:13:56.016Z,42.90
2022-10-09T18:16:35.411Z,43.10
2022-10-09T18:19:06.662Z,43.40
2022-10-09T18:21:35.617Z,44.00
2022-10-09T18:24:03.995Z,44.30
2022-10-09T18:26:32.272Z,44.40
2022-10-09T18:29:01.114Z,44.20
2022-10-09T18:31:31.207Z,44.70
2022-10-09T18:34:00.275Z,45.50
2022-10-09T18:36:33.535Z,45.60
2022-10-09T18:39:04.952Z,45.20
2022-10-09T18:41:33.547Z,44.70
2022-10-09T18:44:02.827Z,45.20
2022-10-09T18:46:37.193Z,44.90
2022-10-09T18:49:09.325Z,44.80
2022-10-09T18:51:39.235Z,44.90
2022-10-09T18:54:08.967Z,44.90
2022-10-09T18:56:38.417Z,44.90
2022-10-09T18:59:10.547Z,45.20
2022-10-09T19:01:40.289Z,45.00
2022-10-09T19:04:09.064Z,45.30
2022-10-09T19:06:37.818Z,45.10
2022-10-09T19:09:06.251Z,45.10
2022-10-09T19:11:35.776Z,45.60
2022-10-09T19:14:04.045Z,46.50
2022-10-09T19:16:33.974Z,46.40
2022-10-09T19:19:03.584Z,46.70
2022-10-09T19:21:32.205Z,47.10
2022-10-09T19:24:03.579Z,47.20
2022-10-09T19:26:33.055Z,47.20
2022-10-09T19:29:01.407Z,47.20
2022-10-09T19:31:29.795Z,47.70
2022-10-09T19:34:00.274Z,48.20
2022-10-09T19:36:33.193Z,48.20
2022-10-09T19:39:01.642Z,48.20
2022-10-09T19:41:30.168Z,48.90
2022-10-09T19:43:59.603Z,48.40
2022-10-09T19:46:28.777Z,48.80
2022-10-09T19:48:57.399Z,48.30
2022-10-09T19:51:27.558Z,48.10
2022-10-09T19:53:58.960Z,48.00
2022-10-09T19:56:29.554Z,48.10
2022-10-09T19:58:58.668Z,48.20
2022-10-09T20:01:28.552Z,48.20
2022-10-09T20:03:57.975Z,48.40
2022-10-09T20:06:26.944Z,48.50
2022-10-09T20:08:57.501Z,48.60
2022-10-09T20:11:27.433Z,48.50
2022-10-09T20:13:56.653Z,48.50
2022-10-09T20:16:27.866Z,48.70
2022-10-09T20:18:56.757Z,48.80
2022-10-09T20:21:25.243Z,49.00
2022-10-09T20:23:53.626Z,49.30
2022-10-09T20:26:23.495Z,49.30
2022-10-09T20:28:53.887Z,49.20
2022-10-09T20:31:25.800Z,49.50
2022-10-09T20:33:54.994Z,49.50
2022-10-09T20:36:26.447Z,49.80
2022-10-09T20:38:57.424Z,50.00
2022-10-09T20:41:29.098Z,50.60
2022-10-09T20:43:58.927Z,50.60
2022-10-09T20:46:29.534Z,50.40
2022-10-09T20:48:57.978Z,50.30
2022-10-09T20:51:27.146Z,50.50
2022-10-09T20:53:56.785Z,50.40
2022-10-09T20:56:28.404Z,50.40
2022-10-09T20:58:57.421Z,50.30
2022-10-09T21:01:27.140Z,50.30
2022-10-09T21:03:59.134Z,50.30
2022-10-09T21:06:27.851Z,50.40
2022-10-09T21:08:57.007Z,50.70
2022-10-09T21:11:26.874Z,50.70
2022-10-09T21:13:55.356Z,51.40
2022-10-09T21:16:25.624Z,50.80
2022-10-09T21:18:58.107Z,51.10
2022-10-09T21:21:27.234Z,51.00
2022-10-09T21:23:57.830Z,51.10
2022-10-09T21:26:30.206Z,51.10
2022-10-09T21:28:59.823Z,51.00
2022-10-09T21:31:31.432Z,51.10
2022-10-09T21:34:01.493Z,51.10
2022-10-09T21:36:41.084Z,51.10
2022-10-09T21:39:19.423Z,51.20
2022-10-09T21:41:49.294Z,51.50
2022-10-09T21:44:17.626Z,51.90
2022-10-09T21:46:45.852Z,52.10
2022-10-09T21:49:20.804Z,52.30
2022-10-09T21:51:49.479Z,52.30
2022-10-09T21:54:18.346Z,52.70
2022-10-09T21:56:48.375Z,53.00
2022-10-09T21:59:17.018Z,53.40
2022-10-09T22:01:45.435Z,54.30
2022-10-09T22:04:13.855Z,54.70
2022-10-09T22:06:43.324Z,54.40
2022-10-09T22:09:12.287Z,54.30
2022-10-09T22:11:40.614Z,54.20
2022-10-09T22:14:10.215Z,54.10
2022-10-09T22:16:38.736Z,54.20
2022-10-09T22:19:07.234Z,54.50
2022-10-09T22:21:35.665Z,55.00
2022-10-09T22:24:03.963Z,55.20
2022-10-09T22:26:32.203Z,55.50
2022-10-09T22:29:00.523Z,55.30
2022-10-09T22:31:30.064Z,54.90
2022-10-09T22:34:00.338Z,54.70
2022-10-09T22:36:30.748Z,54.60
2022-10-09T22:39:01.246Z,54.70
2022-10-09T22:41:30.867Z,54.80
2022-10-09T22:44:00.692Z,54.90
2022-10-09T22:46:31.964Z,55.10
2022-10-09T22:49:01.003Z,55.00
2022-10-09T22:51:30.772Z,55.10
2022-10-09T22:54:00.437Z,55.20
2022-10-09T22:56:31.365Z,55.30
2022-10-09T22:58:59.827Z,55.30
2022-10-09T23:01:32.624Z,55.50
2022-10-09T23:04:02.503Z,55.50
2022-10-09T23:06:30.967Z,55.70
2022-10-09T23:09:00.257Z,55.70
2022-10-09T23:11:28.705Z,55.90
2022-10-09T23:13:58.415Z,56.10
2022-10-09T23:16:28.421Z,56.10
2022-10-09T23:18:59.581Z,56.50
2022-10-09T23:21:30.293Z,56.60
2022-10-09T23:23:59.204Z,56.80
2022-10-09T23:26:29.607Z,56.90
2022-10-09T23:29:00.352Z,57.20
2022-10-09T23:31:30.213Z,57.50
2022-10-09T23:34:00.392Z,57.80
2022-10-09T23:36:30.417Z,57.70
2022-10-09T23:39:00.591Z,57.80
2022-10-09T23:41:30.056Z,58.10
2022-10-09T23:43:58.726Z,58.30
2022-10-09T23:46:29.640Z,58.50
2022-10-09T23:48:59.787Z,58.60
2022-10-09T23:51:28.841Z,58.70
2022-10-09T23:53:58.142Z,58.80
2022-10-09T23:56:27.847Z,58.80
2022-10-09T23:58:57.561Z,58.90
